createdAt,value
2022-10-15T00:00:07.158Z,99.90
2022-10-15T00:05:10.058Z,99.90
2022-10-15T00:10:12.769Z,99.90
2022-10-15T00:15:15.996Z,99.90
2022-10-15T00:20:19.125Z,99.90
2022-10-15T00:25:21.767Z,99.90
2022-10-15T00:30:24.477Z,99.90
2022-10-15T00:35:27.254Z,99.90
2022-10-15T00:40:30.034Z,99.90
2022-10-15T00:45:32.781Z,99.90
2022-10-15T00:50:35.934Z,99.90
2022-10-15T00:55:42.876Z,99.90
2022-10-15T01:00:46.221Z,99.90
2022-10-15T01:05:51.497Z,99.90
2022-10-15T01:11:22.155Z,99.90
2022-10-15T01:16:36.742Z,99.90
2022-10-15T01:21:48.677Z,99.90
2022-10-15T01:27:21.212Z,99.90
2022-10-15T01:32:37.323Z,99.90
2022-10-15T01:37:52.055Z,99.90
2022-10-15T01:43:04.063Z,99.90
2022-10-15T01:48:26.736Z,99.90
2022-10-15T01:53:34.536Z,99.90
2022-10-15T01:58:43.439Z,99.90
2022-10-15T02:03:51.790Z,99.90
2022-10-15T02:09:19.414Z,99.90
2022-10-15T02:14:35.139Z,99.90
2022-10-15T02:19:55.357Z,99.90
2022-10-15T02:25:03.815Z,99.90
2022-10-15T02:30:09.212Z,99.90
2022-10-15T02:35:13.008Z,99.90
2022-10-15T02:40:19.508Z,99.90
2022-10-15T02:45:22.911Z,99.90
2022-10-15T02:50:26.017Z,99.90
2022-10-15T02:55:28.834Z,99.90
2022-10-15T03:00:31.578Z,99.90
2022-10-15T03:05:35.333Z,99.90
2022-10-15T03:10:38.148Z,99.90
2022-10-15T03:15:41.032Z,99.90
2022-10-15T03:20:44.753Z,99.90
2022-10-15T03:25:48.906Z,99.90
2022-10-15T03:30:57.460Z,99.90
2022-10-15T03:36:00.125Z,99.90
2022-10-15T03:41:03.266Z,99.90
2022-10-15T03:46:11.347Z,99.90
2022-10-15T03:51:22.725Z,99.90
2022-10-15T03:56:32.794Z,99.90
2022-10-15T04:01:52.433Z,99.90
2022-10-15T04:06:55.260Z,99.90
2022-10-15T04:11:58.956Z,99.90
2022-10-15T04:17:01.955Z,99.90
2022-10-15T04:22:06.206Z,99.90
2022-10-15T04:27:16.996Z,99.90
2022-10-15T04:32:20.993Z,99.90
2022-10-15T04:37:23.922Z,99.90
2022-10-15T04:42:30.029Z,99.90
2022-10-15T04:47:32.709Z,99.90
2022-10-15T04:52:43.143Z,99.90
2022-10-15T04:57:48.367Z,99.90
2022-10-15T05:02:57.909Z,99.90
2022-10-15T05:08:12.512Z,99.90
2022-10-15T05:13:34.822Z,99.90
2022-10-15T05:18:40.481Z,99.90
2022-10-15T05:23:45.091Z,99.90
2022-10-15T05:29:05.848Z,99.90
2022-10-15T05:34:09.552Z,99.90
2022-10-15T05:39:20.518Z,99.90
2022-10-15T05:44:23.548Z,99.90
2022-10-15T05:49:26.363Z,99.90
2022-10-15T05:54:40.103Z,99.90
2022-10-15T05:59:42.988Z,99.90
2022-10-15T06:04:47.364Z,99.90
2022-10-15T06:09:50.304Z,99.90
2022-10-15T06:14:53.623Z,99.90
2022-10-15T06:19:56.425Z,99.90
2022-10-15T06:24:59.239Z,99.90
2022-10-15T06:30:02.657Z,99.90
2022-10-15T06:35:05.804Z,99.90
2022-10-15T06:40:10.192Z,99.90
2022-10-15T06:45:20.917Z,99.90
2022-10-15T06:50:24.766Z,99.90
2022-10-15T06:55:29.198Z,99.90
2022-10-15T07:00:32.047Z,99.90
2022-10-15T07:05:35.964Z,99.90
2022-10-15T07:10:38.822Z,99.90
2022-10-15T07:15:41.592Z,99.90
2022-10-15T07:20:44.390Z,99.90
2022-10-15T07:25:47.301Z,99.90
2022-10-15T07:30:50.345Z,99.90
2022-10-15T07:35:53.530Z,99.90
2022-10-15T07:41:03.916Z,99.90
2022-10-15T07:46:08.124Z,99.90
2022-10-15T07:51:11.958Z,99.90
2022-10-15T07:56:16.729Z,99.90
2022-10-15T08:01:21.350Z,99.90
2022-10-15T08:06:24.294Z,99.90
2022-10-15T08:11:27.294Z,99.90
2022-10-15T08:16:30.554Z,99.90
2022-10-15T08:21:33.891Z,99.90
2022-10-15T08:26:37.271Z,99.90
2022-10-15T08:31:41.160Z,99.90
2022-10-15T08:36:44.042Z,99.90
2022-10-15T08:42:00.152Z,99.90
2022-10-15T08:47:08.600Z,96.70
2022-10-15T08:52:41.211Z,93.40
2022-10-15T08:57:50.980Z,77.90
2022-10-15T09:03:10.936Z,82.80
2022-10-15T09:08:29.309Z,62.80
2022-10-15T09:13:40.946Z,59.60
2022-10-15T09:18:49.143Z,64.60
2022-10-15T09:23:55.669Z,51.80
2022-10-15T09:29:36.673Z,51.70
2022-10-15T09:35:02.417Z,56.50
2022-10-15T09:40:08.249Z,59.90
2022-10-15T09:45:15.107Z,58.20
2022-10-15T09:55:32.204Z,59.30
2022-10-15T10:00:53.388Z,62.70
2022-10-15T10:06:15.298Z,64.30
2022-10-15T10:11:24.052Z,69.70
2022-10-15T10:16:28.058Z,71.60
2022-10-15T10:21:37.491Z,75.70
2022-10-15T10:26:40.611Z,72.40
2022-10-15T10:31:45.263Z,80.50
2022-10-15T10:37:04.973Z,80.10
2022-10-15T10:42:15.199Z,82.90
2022-10-15T10:47:23.906Z,80.90
2022-10-15T10:52:38.071Z,77.40
2022-10-15T10:57:52.100Z,78.20
2022-10-15T11:02:55.191Z,78.50
2022-10-15T11:08:16.992Z,76.00
2022-10-15T11:13:31.271Z,77.50
2022-10-15T11:18:55.740Z,77.70
2022-10-15T11:24:14.659Z,77.00
2022-10-15T11:29:39.255Z,82.20
2022-10-15T11:35:08.662Z,76.60
2022-10-15T11:40:26.895Z,80.50
2022-10-15T11:45:38.922Z,67.90
2022-10-15T11:51:04.099Z,71.50
2022-10-15T11:56:33.694Z,68.30
2022-10-15T12:01:42.697Z,84.40
2022-10-15T12:06:52.743Z,77.90
2022-10-15T12:12:26.820Z,79.40
2022-10-15T12:17:57.933Z,75.70
2022-10-15T12:23:03.088Z,73.10
2022-10-15T12:28:16.111Z,83.30
2022-10-15T12:33:44.998Z,74.20
2022-10-15T12:39:33.602Z,72.70
2022-10-15T12:44:50.100Z,76.50
2022-10-15T12:50:03.995Z,77.10
2022-10-15T12:55:40.068Z,71.70
2022-10-15T13:00:43.863Z,75.30
2022-10-15T13:05:48.984Z,81.70
2022-10-15T13:11:01.553Z,72.80
2022-10-15T13:16:08.925Z,77.50
2022-10-15T13:21:13.793Z,90.10
2022-10-15T13:26:22.715Z,84.00
2022-10-15T13:31:36.472Z,80.80
2022-10-15T13:36:39.561Z,94.00
2022-10-15T13:41:42.352Z,85.10
2022-10-15T13:46:45.322Z,84.40
2022-10-15T13:51:50.432Z,78.30
2022-10-15T13:56:59.397Z,73.70
2022-10-15T14:02:04.579Z,84.30
2022-10-15T14:07:25.353Z,78.50
2022-10-15T14:12:28.389Z,80.90
2022-10-15T14:17:31.614Z,76.30
2022-10-15T14:22:36.073Z,81.50
2022-10-15T14:27:38.982Z,81.40
2022-10-15T14:32:51.978Z,83.70
2022-10-15T14:38:06.642Z,99.90
2022-10-15T14:43:19.838Z,99.90
2022-10-15T14:48:36.661Z,99.90
2022-10-15T14:53:45.063Z,99.90
2022-10-15T14:58:52.608Z,99.90
2022-10-15T15:03:57.331Z,99.90
2022-10-15T15:09:00.203Z,99.90
2022-10-15T15:14:04.044Z,99.90
2022-10-15T15:19:09.407Z,99.90
2022-10-15T15:24:13.049Z,99.90
2022-10-15T15:29:15.907Z,99.90
2022-10-15T15:34:20.228Z,99.90
2022-10-15T15:39:23.365Z,99.90
2022-10-15T15:44:26.459Z,99.90
2022-10-15T15:49:29.310Z,99.90
2022-10-15T15:54:32.711Z,99.90
2022-10-15T15:59:35.872Z,99.90
2022-10-15T16:04:38.719Z,99.90
2022-10-15T16:09:42.045Z,99.90
2022-10-15T16:14:44.936Z,99.90
2022-10-15T16:19:47.791Z,99.90
2022-10-15T16:24:50.621Z,99.90
2022-10-15T16:29:53.455Z,99.90
2022-10-15T16:34:56.191Z,99.90
2022-10-15T16:39:59.050Z,99.90
2022-10-15T16:45:01.859Z,99.90
2022-10-15T16:50:04.951Z,99.90
2022-10-15T16:55:08.213Z,99.90
2022-10-15T17:00:11.693Z,99.90
2022-10-15T17:05:14.759Z,99.90
2022-10-15T17:10:17.978Z,99.90
2022-10-15T17:15:20.831Z,99.90
2022-10-15T17:20:23.810Z,99.90
2022-10-15T17:25:26.823Z,99.90
2022-10-15T17:30:29.653Z,99.90
2022-10-15T17:35:37.214Z,99.90
2022-10-15T17:40:41.108Z,99.90
2022-10-15T17:45:44.080Z,99.90
2022-10-15T17:50:47.379Z,99.90
2022-10-15T17:55:50.502Z,99.90
2022-10-15T18:00:58.466Z,99.90
2022-10-15T18:06:08.268Z,99.90
2022-10-15T18:11:13.960Z,99.90
2022-10-15T18:16:17.659Z,99.90
2022-10-15T18:21:22.794Z,99.90
2022-10-15T18:26:25.722Z,99.90
2022-10-15T18:31:28.951Z,99.90
2022-10-15T18:36:33.234Z,99.90
2022-10-15T18:41:38.416Z,99.90
2022-10-15T18:46:42.489Z,99.90
2022-10-15T18:51:46.812Z,99.90
2022-10-15T18:56:50.247Z,99.90
2022-10-15T19:01:55.132Z,99.90
2022-10-15T19:07:02.767Z,99.90
2022-10-15T19:12:06.022Z,99.90
2022-10-15T19:17:08.975Z,99.90
2022-10-15T19:22:12.402Z,99.90
2022-10-15T19:27:15.249Z,99.90
2022-10-15T19:32:18.222Z,99.90
2022-10-15T19:37:21.131Z,99.90
2022-10-15T19:42:24.463Z,99.90
2022-10-15T19:47:27.931Z,99.90
2022-10-15T19:52:31.398Z,99.90
2022-10-15T19:57:34.306Z,99.90
2022-10-15T20:02:37.253Z,99.90
2022-10-15T20:07:40.134Z,99.90
2022-10-15T20:12:43.243Z,99.90
2022-10-15T20:17:47.135Z,99.90
2022-10-15T20:22:49.998Z,99.90
2022-10-15T20:27:53.222Z,99.90
2022-10-15T20:32:56.425Z,99.90
2022-10-15T20:37:59.736Z,99.90
2022-10-15T20:43:02.728Z,99.90
2022-10-15T20:48:06.562Z,99.90
2022-10-15T20:53:09.774Z,99.90
2022-10-15T20:58:12.999Z,99.90
2022-10-15T21:03:16.441Z,99.90
2022-10-15T21:08:19.564Z,99.90
2022-10-15T21:13:23.393Z,99.90
2022-10-15T21:18:27.321Z,99.90
2022-10-15T21:23:31.418Z,99.90
2022-10-15T21:28:35.447Z,99.90
2022-10-15T21:33:38.691Z,99.90
2022-10-15T21:38:42.161Z,99.90
2022-10-15T21:43:44.941Z,99.90
2022-10-15T21:48:48.172Z,99.90
2022-10-15T21:53:51.277Z,99.90
2022-10-15T21:58:55.113Z,99.90
2022-10-15T22:04:07.304Z,99.90
2022-10-15T22:09:11.426Z,99.90
2022-10-15T22:14:14.770Z,99.90
2022-10-15T22:19:18.720Z,99.90
2022-10-15T22:24:21.737Z,99.90
2022-10-15T22:29:34.441Z,99.90
2022-10-15T22:34:38.206Z,99.90
2022-10-15T22:39:41.090Z,99.90
2022-10-15T22:44:44.112Z,99.90
2022-10-15T22:49:46.741Z,99.90
2022-10-15T22:54:50.870Z,99.90
2022-10-15T22:59:55.965Z,99.90
2022-10-15T23:05:01.460Z,99.90
2022-10-15T23:10:04.862Z,99.90
2022-10-15T23:15:08.144Z,99.90
2022-10-15T23:20:12.158Z,99.90
2022-10-15T23:25:15.171Z,99.90
2022-10-15T23:30:24.785Z,99.90
2022-10-15T23:35:28.032Z,99.90
2022-10-15T23:40:31.361Z,99.90
2022-10-15T23:45:35.805Z,99.90
2022-10-15T23:50:41.118Z,99.90
2022-10-15T23:55:43.953Z,99.90
